createdAt,value
2022-10-06T00:04:23.288Z,12.78
2022-10-06T00:09:25.189Z,12.75
2022-10-06T00:14:27.740Z,12.70
2022-10-06T00:19:29.811Z,12.72
2022-10-06T00:24:32.218Z,12.71
2022-10-06T00:29:34.190Z,12.70
2022-10-06T00:34:39.510Z,12.77
2022-10-06T00:39:41.929Z,12.75
2022-10-06T00:44:44.853Z,12.75
2022-10-06T00:49:47.296Z,12.72
2022-10-06T00:54:49.560Z,12.66
2022-10-06T00:59:52.032Z,12.74
2022-10-06T01:04:57.597Z,12.71
2022-10-06T01:09:59.750Z,12.76
2022-10-06T01:15:02.467Z,12.73
2022-10-06T01:20:09.083Z,12.69
2022-10-06T01:25:14.371Z,12.72
2022-10-06T01:30:19.450Z,12.63
2022-10-06T01:35:22.173Z,12.61
2022-10-06T01:40:29.312Z,12.45
2022-10-06T01:45:34.589Z,12.46
2022-10-06T01:50:36.812Z,12.48
2022-10-06T01:55:38.742Z,12.49
2022-10-06T02:00:41.878Z,12.49
2022-10-06T02:05:43.770Z,12.36
2022-10-06T02:10:47.373Z,12.41
2022-10-06T02:15:57.864Z,12.44
2022-10-06T02:21:00.348Z,12.46
2022-10-06T02:26:04.736Z,12.48
2022-10-06T02:31:10.465Z,12.38
2022-10-06T02:36:15.829Z,12.44
2022-10-06T02:41:18.633Z,12.47
2022-10-06T02:46:22.284Z,12.48
2022-10-06T02:51:26.078Z,12.44
2022-10-06T02:56:29.220Z,12.36
2022-10-06T03:01:32.168Z,12.50
2022-10-06T03:06:39.884Z,12.42
2022-10-06T03:11:51.007Z,12.38
2022-10-06T03:17:02.073Z,12.44
2022-10-06T03:22:05.977Z,12.42
2022-10-06T03:27:22.406Z,12.47
2022-10-06T03:32:26.425Z,12.41
2022-10-06T03:37:28.852Z,12.44
2022-10-06T03:42:32.288Z,12.53
2022-10-06T03:47:34.358Z,12.40
2022-10-06T03:52:36.464Z,12.38
2022-10-06T03:57:38.591Z,12.30
2022-10-06T04:02:41.313Z,12.38
2022-10-06T04:07:43.788Z,12.45
2022-10-06T04:12:46.374Z,12.29
2022-10-06T04:17:48.378Z,12.29
2022-10-06T04:22:51.797Z,12.32
2022-10-06T04:27:53.929Z,12.25
2022-10-06T04:32:56.209Z,12.29
2022-10-06T04:37:58.521Z,12.35
2022-10-06T04:43:02.632Z,12.23
2022-10-06T04:48:05.593Z,12.35
2022-10-06T04:53:07.610Z,12.34
2022-10-06T04:58:09.985Z,12.45
2022-10-06T05:03:13.328Z,12.51
2022-10-06T05:08:16.377Z,12.61
2022-10-06T05:13:18.712Z,12.71
2022-10-06T05:18:20.761Z,12.80
2022-10-06T05:23:24.169Z,12.87
2022-10-06T05:28:28.928Z,12.97
2022-10-06T05:33:34.775Z,13.02
2022-10-06T05:38:37.520Z,13.18
2022-10-06T05:43:40.537Z,13.19
2022-10-06T05:48:52.839Z,13.30
2022-10-06T05:53:57.821Z,13.39
2022-10-06T05:59:00.656Z,13.48
2022-10-06T06:04:06.451Z,13.51
2022-10-06T06:09:14.028Z,13.70
2022-10-06T06:14:25.546Z,13.82
2022-10-06T06:19:34.149Z,13.92
2022-10-06T06:24:36.561Z,14.04
2022-10-06T06:29:40.121Z,14.29
2022-10-06T06:34:42.259Z,14.53
2022-10-06T06:39:45.197Z,14.64
2022-10-06T06:44:47.508Z,14.69
2022-10-06T06:50:10.699Z,14.91
2022-10-06T06:55:14.891Z,15.08
2022-10-06T07:00:17.362Z,15.90
2022-10-06T07:05:20.356Z,16.40
2022-10-06T07:10:22.544Z,16.93
2022-10-06T07:15:43.350Z,17.32
2022-10-06T07:21:04.056Z,17.60
2022-10-06T07:26:06.246Z,17.88
2022-10-06T07:31:08.781Z,18.13
2022-10-06T07:36:11.196Z,18.25
2022-10-06T07:41:19.472Z,18.42
2022-10-06T07:46:34.861Z,18.55
2022-10-06T07:52:04.219Z,18.79
2022-10-06T07:57:06.573Z,19.16
2022-10-06T08:02:08.672Z,19.33
2022-10-06T08:07:12.534Z,19.46
2022-10-06T08:12:32.899Z,19.57
2022-10-06T08:17:36.735Z,19.69
2022-10-06T08:22:40.176Z,19.79
2022-10-06T08:27:44.139Z,19.76
2022-10-06T08:32:47.665Z,19.87
2022-10-06T08:37:50.188Z,20.28
2022-10-06T08:42:56.337Z,20.50
2022-10-06T08:48:07.204Z,20.22
2022-10-06T08:53:28.871Z,19.54
2022-10-06T08:58:46.350Z,19.36
2022-10-06T09:03:51.774Z,19.08
2022-10-06T09:09:22.338Z,18.89
2022-10-06T09:14:49.222Z,18.93
2022-10-06T09:20:01.479Z,19.05
2022-10-06T09:25:16.735Z,19.15
2022-10-06T09:30:21.454Z,19.44
2022-10-06T09:35:25.634Z,19.95
2022-10-06T09:40:49.263Z,21.02
2022-10-06T09:45:51.606Z,21.22
2022-10-06T09:51:09.131Z,21.57
2022-10-06T09:56:15.553Z,21.46
2022-10-06T10:01:24.760Z,21.48
2022-10-06T10:06:31.891Z,20.87
2022-10-06T10:11:52.268Z,20.92
2022-10-06T10:16:54.220Z,21.23
2022-10-06T10:21:59.949Z,20.94
2022-10-06T10:27:13.332Z,21.64
2022-10-06T10:32:23.897Z,22.27
2022-10-06T10:37:37.390Z,22.20
2022-10-06T10:42:49.294Z,21.87
2022-10-06T10:47:51.260Z,22.33
2022-10-06T10:52:59.763Z,22.42
2022-10-06T10:58:14.736Z,22.93
2022-10-06T11:03:17.000Z,22.27
2022-10-06T11:08:30.213Z,22.66
2022-10-06T11:13:45.918Z,22.09
2022-10-06T11:19:02.968Z,21.91
2022-10-06T11:24:14.920Z,21.55
2022-10-06T11:29:31.253Z,21.50
2022-10-06T11:34:33.122Z,21.44
2022-10-06T11:39:50.273Z,21.33
2022-10-06T11:45:15.325Z,21.82
2022-10-06T11:50:36.534Z,22.21
2022-10-06T11:55:38.705Z,22.92
2022-10-06T12:00:44.983Z,23.29
2022-10-06T12:05:56.171Z,23.56
2022-10-06T12:10:58.778Z,23.57
2022-10-06T12:22:20.916Z,23.29
2022-10-06T12:27:29.542Z,23.13
2022-10-06T12:33:00.538Z,22.23
2022-10-06T12:38:26.668Z,22.33
2022-10-06T12:43:34.498Z,22.31
2022-10-06T12:49:08.544Z,22.54
2022-10-06T12:54:36.042Z,22.55
2022-10-06T12:59:40.061Z,22.34
2022-10-06T13:04:49.954Z,22.20
2022-10-06T13:10:13.250Z,22.35
2022-10-06T13:15:29.601Z,22.40
2022-10-06T13:20:47.944Z,22.31
2022-10-06T13:26:02.100Z,22.24
2022-10-06T13:31:31.436Z,22.33
2022-10-06T13:36:38.741Z,22.19
2022-10-06T13:42:01.397Z,22.07
2022-10-06T13:47:07.276Z,22.04
2022-10-06T13:52:23.978Z,21.72
2022-10-06T13:57:46.899Z,21.32
2022-10-06T14:03:07.654Z,20.88
2022-10-06T14:08:09.596Z,20.62
2022-10-06T14:13:21.754Z,20.83
2022-10-06T14:18:29.632Z,20.75
2022-10-06T14:23:42.221Z,20.66
2022-10-06T14:28:51.490Z,20.84
2022-10-06T14:33:54.914Z,20.81
2022-10-06T14:38:58.325Z,20.29
2022-10-06T14:44:01.867Z,20.45
2022-10-06T14:49:13.997Z,20.01
2022-10-06T14:54:15.953Z,19.95
2022-10-06T14:59:18.193Z,19.58
2022-10-06T15:04:24.215Z,19.66
2022-10-06T15:09:29.616Z,19.58
2022-10-06T15:14:34.313Z,19.52
2022-10-06T15:19:36.406Z,19.31
2022-10-06T15:24:38.337Z,19.17
2022-10-06T15:29:40.341Z,18.91
2022-10-06T15:34:42.222Z,18.87
2022-10-06T15:39:52.677Z,18.71
2022-10-06T15:44:58.057Z,18.56
2022-10-06T15:50:00.244Z,18.34
2022-10-06T15:55:02.144Z,18.24
2022-10-06T16:00:06.101Z,18.06
2022-10-06T16:05:49.629Z,17.90
2022-10-06T16:10:53.837Z,17.76
2022-10-06T16:15:57.127Z,17.53
2022-10-06T16:20:59.050Z,17.41
2022-10-06T16:26:04.073Z,17.31
2022-10-06T16:31:06.271Z,17.13
2022-10-06T16:36:09.475Z,16.99
2022-10-06T16:41:11.990Z,16.87
2022-10-06T16:46:21.024Z,16.74
2022-10-06T16:51:25.111Z,16.55
2022-10-06T16:56:29.889Z,16.41
2022-10-06T17:01:40.881Z,16.34
2022-10-06T17:06:54.697Z,16.17
2022-10-06T17:12:01.101Z,16.10
2022-10-06T17:17:08.265Z,15.96
2022-10-06T17:22:10.417Z,15.74
2022-10-06T17:27:12.535Z,15.56
2022-10-06T17:32:15.310Z,15.46
2022-10-06T17:37:18.079Z,15.43
2022-10-06T17:42:20.350Z,15.38
2022-10-06T17:47:22.734Z,15.31
2022-10-06T17:52:24.935Z,15.26
2022-10-06T17:57:30.885Z,15.17
2022-10-06T18:02:33.326Z,15.06
2022-10-06T18:07:40.195Z,14.96
2022-10-06T18:12:42.833Z,14.73
2022-10-06T18:17:45.299Z,14.69
2022-10-06T18:22:48.502Z,14.56
2022-10-06T18:28:03.335Z,14.47
2022-10-06T18:38:28.071Z,14.14
2022-10-06T18:43:30.688Z,13.99
2022-10-06T18:48:51.398Z,13.96
2022-10-06T18:53:54.773Z,13.84
2022-10-06T18:58:59.111Z,13.73
2022-10-06T19:04:05.378Z,13.62
2022-10-06T19:09:07.511Z,13.48
2022-10-06T19:14:10.010Z,13.37
2022-10-06T19:19:15.080Z,13.32
2022-10-06T19:24:20.259Z,13.12
2022-10-06T19:29:24.146Z,13.10
2022-10-06T19:34:26.775Z,12.96
2022-10-06T19:39:30.975Z,12.93
2022-10-06T19:44:33.509Z,12.87
2022-10-06T19:49:36.107Z,12.88
2022-10-06T19:54:38.894Z,12.89
2022-10-06T19:59:41.053Z,12.87
2022-10-06T20:04:43.021Z,12.87
2022-10-06T20:09:45.050Z,12.85
2022-10-06T20:14:47.167Z,12.85
2022-10-06T20:19:51.798Z,12.79
2022-10-06T20:24:55.872Z,12.72
2022-10-06T20:29:58.178Z,12.73
2022-10-06T20:35:01.908Z,12.71
2022-10-06T20:40:22.187Z,12.72
2022-10-06T20:45:24.298Z,12.70
2022-10-06T20:50:28.497Z,12.64
2022-10-06T20:55:30.400Z,12.59
2022-10-06T21:00:32.291Z,12.56
2022-10-06T21:05:34.224Z,12.52
2022-10-06T21:10:36.547Z,12.50
2022-10-06T21:15:45.208Z,12.47
2022-10-06T21:20:55.943Z,12.37
2022-10-06T21:26:02.070Z,12.28
2022-10-06T21:31:13.601Z,12.34
2022-10-06T21:36:20.929Z,12.30
2022-10-06T21:41:31.833Z,12.30
2022-10-06T21:46:51.529Z,12.19
2022-10-06T21:51:55.779Z,12.17
2022-10-06T21:56:59.262Z,12.11
2022-10-06T22:02:01.452Z,12.04
2022-10-06T22:07:03.916Z,11.91
2022-10-06T22:12:06.016Z,11.84
2022-10-06T22:17:07.948Z,11.76
2022-10-06T22:22:09.843Z,11.69
2022-10-06T22:27:11.712Z,11.58
2022-10-06T22:32:13.817Z,11.52
2022-10-06T22:37:15.871Z,11.41
2022-10-06T22:42:17.699Z,11.28
2022-10-06T22:47:19.588Z,11.19
2022-10-06T22:52:21.531Z,11.12
2022-10-06T22:57:23.458Z,11.01
2022-10-06T23:02:25.342Z,10.96
2022-10-06T23:07:27.418Z,10.92
2022-10-06T23:12:29.631Z,10.85
2022-10-06T23:17:31.703Z,10.81
2022-10-06T23:22:33.790Z,10.74
2022-10-06T23:27:36.127Z,10.69
2022-10-06T23:32:40.750Z,10.63
2022-10-06T23:37:43.001Z,10.56
2022-10-06T23:42:45.079Z,10.50
2022-10-06T23:47:47.334Z,10.45
2022-10-06T23:52:49.450Z,10.43
2022-10-06T23:57:51.376Z,10.42
